This is the latest recevied weather packets stored in our database for station/object IV3ONZ. If no packets are shown the sender has not sent any weather packets the latest 10 day(s).
| Time | Temp. | Humidity | Pressure | Rain* | Wind** | Luminosity | Snow |
|---|---|---|---|---|---|---|---|
| 1777807804 | 22.22° C | 45% | 1021.3 hPa | 0 mm | - | 774 W/m² | - |
| 1777806903 | 22.78° C | 45% | 1021.5 hPa | 0 mm | - | 875 W/m² | - |
| 1777806604 | 22.22° C | 47% | 1021.6 hPa | 0 mm | - | 864 W/m² | - |
| 1777805704 | 22.22° C | 48% | 1021.6 hPa | 0 mm | - | 860 W/m² | - |
| 1777804204 | 21.67° C | 50% | 1021.9 hPa | 0 mm | - | 747 W/m² | - |
| 1777802104 | 21.11° C | 49% | 1022.2 hPa | 0 mm | - | 876 W/m² | - |
| 1777801504 | 21.11° C | 50% | 1022.5 hPa | 0 mm | - | 877 W/m² | - |
| 1777797903 | 20° C | 53% | 1022.4 hPa | 0 mm | - | 755 W/m² | - |
| 1777797604 | 20° C | 53% | 1022.7 hPa | 0 mm | - | 742 W/m² | - |
| 1777796703 | 20° C | 54% | 1022.6 hPa | 0 mm | - | 702 W/m² | - |
| 1777796404 | 19.44° C | 55% | 1022.8 hPa | 0 mm | - | 692 W/m² | - |
| 1777795804 | 20° C | 55% | 1022.4 hPa | 0 mm | - | 661 W/m² | - |
| 1777794004 | 19.44° C | 56% | 1022.6 hPa | 0 mm | - | 572 W/m² | - |
| 1777793403 | 19.44° C | 54% | 1022.4 hPa | 0 mm | - | 535 W/m² | - |
| 1777789205 | 17.22° C | 57% | 1022.3 hPa | 0 mm | - | 74 W/m² | - |
| 1777788304 | 15.56° C | 60% | 1022.2 hPa | 0 mm | - | 257 W/m² | - |
| 1777787833 | 15° C | 62% | 1022.1 hPa | 0 mm | - | 238 W/m² | - |
| 1777786504 | 14.44° C | 63% | 1022.1 hPa | 0 mm | - | 171 W/m² | - |
| 1777785303 | 12.78° C | 66% | 1022.1 hPa | 0 mm | - | 114 W/m² | - |
| 1777785004 | 12.22° C | 68% | 1022.1 hPa | 0 mm | - | 106 W/m² | - |
| 1777784704 | 11.67° C | 67% | 1022.3 hPa | 0 mm | - | 96 W/m² | - |
| 1777783804 | 11.11° C | 69% | 1022.3 hPa | 0 mm | - | 59 W/m² | - |
| 1777782904 | 10.56° C | 72% | 1022.4 hPa | 0 mm | - | 36 W/m² | - |
| 1777782004 | 8.33° C | 80% | 1022.2 hPa | 0 mm | - | 22 W/m² | - |
| 1777781104 | 8.33° C | 80% | 1022.2 hPa | 0 mm | - | 12 W/m² | - |
* Rain latest hour (hover to see other rain measurements)
** Current wind speed in m/s (hover to see current wind gust speed)